Time;durP1;ratioP1;P1;durP2;ratioP2;P2;SDS_P1;SDS_P2;PMS_P1;PMS_P2;Temp;Humidity;BMP_temperature;BMP_pressure;BME280_temperature;BME280_humidity;BME280_pressure;Samples;Min_cycle;Max_cycle;Signal;HPM_P1;HPM_P2
2024/01/31 00:00:13;;;;;;;;;;;;;;;7.07;77.10;102409.75;4195439;28;20007;-68
2024/01/31 00:02:15;;;;;;;;;;;;;;;7.06;77.59;102405.38;4195833;28;20012;-67
2024/01/31 00:04:17;;;;;;;;;;;;;;;7.06;77.45;102402.69;4196398;28;20027;-68
2024/01/31 00:06:21;;;;;;;;;;;;;;;7.08;77.04;102400.75;4195412;28;19959;-67
2024/01/31 00:08:22;;;;;;;;;;;;;;;7.06;77.49;102416.97;4196718;28;20011;-68
2024/01/31 00:10:25;;;;;;;;;;;;;;;7.06;77.77;102408.06;4195288;28;20373;-67
2024/01/31 00:12:27;;;;;;;;;;;;;;;7.06;77.50;102416.13;4177025;28;20025;-67
2024/01/31 00:14:29;;;;;;;;;;;;;;;7.04;77.69;102409.03;4193239;28;20093;-67
2024/01/31 00:16:31;;;;;;;;;;;;;;;7.06;77.95;102413.44;4195422;28;20007;-67
2024/01/31 00:18:33;;;;;;;;;;;;;;;7.04;77.68;102410.88;4195525;28;20031;-67
2024/01/31 00:20:35;;;;;;;;;;;;;;;7.06;77.10;102405.38;4194559;28;20028;-67
2024/01/31 00:22:38;;;;;;;;;;;;;;;7.07;77.15;102404.38;4195291;28;20030;-67
2024/01/31 00:24:41;;;;;;;;;;;;;;;7.07;76.62;102413.31;4177202;28;20016;-68
2024/01/31 00:26:43;;;;;;;;;;;;;;;7.06;76.88;102413.44;4195394;28;20385;-67
2024/01/31 00:28:45;;;;;;;;;;;;;;;7.07;76.68;102410.63;4195514;28;20027;-68
2024/01/31 00:30:47;;;;;;;;;;;;;;;7.08;76.23;102406.13;4195878;28;20022;-67
2024/01/31 00:32:49;;;;;;;;;;;;;;;7.09;76.44;102413.22;4195361;28;20429;-67
2024/01/31 00:34:51;;;;;;;;;;;;;;;7.12;76.16;102407.63;4196359;28;20019;-67
2024/01/31 00:36:55;;;;;;;;;;;;;;;7.11;76.37;102413.94;4194415;28;20094;-67
2024/01/31 00:38:59;;;;;;;;;;;;;;;7.13;76.43;102418.25;4196464;28;20019;-67
2024/01/31 00:41:01;;;;;;;;;;;;;;;7.13;76.39;102410.19;4194153;28;20016;-67
2024/01/31 00:43:03;;;;;;;;;;;;;;;7.16;76.24;102414.47;4193603;28;20365;-67
2024/01/31 00:45:05;;;;;;;;;;;;;;;7.19;76.58;102411.53;4195482;28;20027;-67
2024/01/31 00:47:07;;;;;;;;;;;;;;;7.19;nan;102411.53;4195440;28;19932;-67
2024/01/31 00:49:09;;;;;;;;;;;;;;;7.20;76.62;102416.81;4196100;28;19931;-67
2024/01/31 00:51:11;;;;;;;;;;;;;;;7.20;76.49;102408.75;4194977;28;20584;-68
2024/01/31 00:53:12;;;;;;;;;;;;;;;7.22;76.51;102414.88;4196032;28;19929;-67
2024/01/31 00:55:16;;;;;;;;;;;;;;;7.23;76.29;102404.97;4194913;28;20018;-67
2024/01/31 00:57:18;;;;;;;;;;;;;;;7.27;76.35;102410.97;4194595;28;20027;-68
2024/01/31 00:59:20;;;;;;;;;;;;;;;7.28;76.50;102399.25;4195073;28;20016;-67
2024/01/31 01:01:22;;;;;;;;;;;;;;;7.31;76.51;102404.41;4193537;28;20343;-68
2024/01/31 01:03:24;;;;;;;;;;;;;;;7.31;76.74;102413.31;4195578;28;20470;-67
2024/01/31 01:05:26;;;;;;;;;;;;;;;7.35;76.95;102408.56;4195919;28;20018;-68
2024/01/31 01:07:28;;;;;;;;;;;;;;;7.36;76.67;102408.44;4194866;28;20416;-69
2024/01/31 01:09:30;;;;;;;;;;;;;;;7.36;76.67;102413.81;4194349;28;20027;-68
2024/01/31 01:11:33;;;;;;;;;;;;;;;7.36;76.62;102421.03;4194306;28;20019;-67
2024/01/31 01:13:35;;;;;;;;;;;;;;;7.37;76.56;102409.31;4193553;28;20024;-67
2024/01/31 01:15:37;;;;;;;;;;;;;;;7.38;76.91;102419.97;4193996;28;20027;-68
2024/01/31 01:17:38;;;;;;;;;;;;;;;7.39;76.82;102405.53;4195227;28;20028;-67
2024/01/31 01:19:40;;;;;;;;;;;;;;;7.42;76.75;102411.69;4195324;28;20018;-68
2024/01/31 01:21:42;;;;;;;;;;;;;;;7.44;76.87;102409.72;4194316;28;20039;-69
2024/01/31 01:23:44;;;;;;;;;;;;;;;7.44;76.88;102405.19;4195006;28;20012;-69
2024/01/31 01:25:46;;;;;;;;;;;;;;;7.45;76.58;102412.28;4195186;28;20558;-68
2024/01/31 01:27:51;;;;;;;;;;;;;;;7.46;76.82;102403.25;4195537;28;19958;-67
2024/01/31 01:29:53;;;;;;;;;;;;;;;7.49;76.96;102402.16;4194631;28;20015;-68
2024/01/31 01:31:55;;;;;;;;;;;;;;;7.49;76.78;102405.72;4176800;28;20023;-67
2024/01/31 01:33:56;;;;;;;;;;;;;;;7.49;76.62;102399.47;4195439;28;20018;-67
2024/01/31 01:35:58;;;;;;;;;;;;;;;7.49;76.80;102402.16;4194351;28;20063;-68
2024/01/31 01:38:00;;;;;;;;;;;;;;;7.50;76.81;102404.72;4194635;28;20026;-68
2024/01/31 01:40:03;;;;;;;;;;;;;;;7.52;76.60;102396.53;4193806;28;20400;-67
2024/01/31 01:42:05;;;;;;;;;;;;;;;7.53;76.42;102400.97;4191731;28;20027;-67
2024/01/31 01:44:08;;;;;;;;;;;;;;;7.52;76.47;102404.63;4194919;28;20030;-68
2024/01/31 01:46:11;;;;;;;;;;;;;;;7.52;76.79;102402.81;4194111;28;20023;-67
2024/01/31 01:48:15;;;;;;;;;;;;;;;7.54;76.44;102400.84;4193947;28;19932;-67
2024/01/31 01:50:17;;;;;;;;;;;;;;;7.55;76.40;102399.88;4194057;28;20499;-68
2024/01/31 01:52:19;;;;;;;;;;;;;;;7.53;76.43;102393.75;4195071;28;20380;-66
2024/01/31 01:54:21;;;;;;;;;;;;;;;7.54;76.52;102395.47;4193283;28;20434;-68
2024/01/31 01:56:24;;;;;;;;;;;;;;;7.57;76.41;102402.47;4191397;28;20019;-68
2024/01/31 01:58:24;;;;;;;;;;;;;;;7.57;76.38;102397.06;4193513;28;20007;-68
2024/01/31 02:00:28;;;;;;;;;;;;;;;7.58;76.43;102396.09;4194623;28;19924;-67
2024/01/31 02:02:29;;;;;;;;;;;;;;;7.58;76.01;102402.31;4193765;28;20396;-67
2024/01/31 02:04:31;;;;;;;;;;;;;;;7.60;76.39;102404.88;4193742;28;20389;-67
2024/01/31 02:06:33;;;;;;;;;;;;;;;7.61;76.00;102405.75;4194142;28;20031;-67
2024/01/31 02:08:35;;;;;;;;;;;;;;;7.63;76.29;102419.94;4192576;28;19955;-67
2024/01/31 02:10:37;;;;;;;;;;;;;;;7.62;76.15;102400.25;4199125;28;20022;-67
2024/01/31 02:12:39;;;;;;;;;;;;;;;7.61;76.08;102403.91;4198347;28;20790;-67
2024/01/31 02:14:40;;;;;;;;;;;;;;;7.62;75.83;102411.03;4199383;28;20020;-67
2024/01/31 02:16:45;;;;;;;;;;;;;;;7.60;75.62;102402.19;4199457;28;20497;-68
2024/01/31 02:18:47;;;;;;;;;;;;;;;7.62;75.89;102412.84;4181907;28;20024;-68
2024/01/31 02:20:49;;;;;;;;;;;;;;;7.61;76.17;102411.97;4196615;28;20019;-67
2024/01/31 02:22:52;;;;;;;;;;;;;;;7.61;75.66;102409.28;4199493;28;20016;-67
2024/01/31 02:24:54;;;;;;;;;;;;;;;7.61;75.49;102416.50;4199846;28;20023;-67
2024/01/31 02:26:56;;;;;;;;;;;;;;;7.62;75.72;102418.22;4200197;28;20023;-68
2024/01/31 02:28:58;;;;;;;;;;;;;;;7.61;75.77;102421.88;4198078;28;19932;-68
2024/01/31 02:31:00;;;;;;;;;;;;;;;7.61;75.85;102425.44;4199353;28;20071;-67
2024/01/31 02:33:02;;;;;;;;;;;;;;;7.60;75.78;102426.38;4196659;28;20011;-68
2024/01/31 02:35:05;;;;;;;;;;;;;;;7.57;75.84;102427.50;4199515;28;20019;-68
2024/01/31 02:37:07;;;;;;;;;;;;;;;7.62;75.50;102426.28;4199127;28;20065;-68
2024/01/31 02:39:10;;;;;;;;;;;;;;;7.62;75.58;102413.72;4182727;28;20015;-67
2024/01/31 02:41:12;;;;;;;;;;;;;;;7.64;75.68;102408.22;4198216;28;20393;-68
2024/01/31 02:43:15;;;;;;;;;;;;;;;7.65;75.62;102405.41;4198100;28;20007;-67
2024/01/31 02:45:17;;;;;;;;;;;;;;;7.66;75.29;102408.94;4200140;28;20374;-68
2024/01/31 02:47:19;;;;;;;;;;;;;;;7.67;75.41;102405.28;4198905;28;20023;-68
2024/01/31 02:49:21;;;;;;;;;;;;;;;7.69;75.80;102400.66;4198485;28;19928;-68
2024/01/31 02:51:23;;;;;;;;;;;;;;;7.68;75.52;102410.56;4199537;28;20032;-67
2024/01/31 02:53:25;;;;;;;;;;;;;;;7.69;75.60;102408.72;4198974;28;20019;-68
2024/01/31 02:55:28;;;;;;;;;;;;;;;7.68;75.60;102401.59;4200063;28;20227;-68
2024/01/31 02:57:30;;;;;;;;;;;;;;;7.71;75.61;102396.00;4198619;28;20512;-67
2024/01/31 02:59:32;;;;;;;;;;;;;;;7.72;76.16;102403.09;4199990;28;20019;-67
2024/01/31 03:01:36;;;;;;;;;;;;;;;7.74;76.11;102410.09;4198306;28;20023;-67
2024/01/31 03:03:38;;;;;;;;;;;;;;;7.75;76.19;102414.47;4198981;28;20026;-67
2024/01/31 03:05:40;;;;;;;;;;;;;;;7.75;76.14;102419.00;4200387;28;20016;-67
2024/01/31 03:07:41;;;;;;;;;;;;;;;7.76;76.05;102426.09;4199353;28;20031;-68
2024/01/31 03:09:43;;;;;;;;;;;;;;;7.76;76.22;102424.25;4199850;28;20364;-67
2024/01/31 03:11:46;;;;;;;;;;;;;;;7.74;76.33;102428.03;4197161;28;20014;-67
2024/01/31 03:13:50;;;;;;;;;;;;;;;7.75;76.31;102425.22;4198813;28;19968;-67
2024/01/31 03:15:52;;;;;;;;;;;;;;;7.75;76.29;102425.22;4198468;28;20022;-68
2024/01/31 03:17:54;;;;;;;;;;;;;;;7.75;76.33;102427.06;4198815;28;20462;-68
2024/01/31 03:19:56;;;;;;;;;;;;;;;7.76;76.36;102426.94;4198955;28;20055;-68
2024/01/31 03:21:58;;;;;;;;;;;;;;;7.78;nan;102431.38;4196147;28;20011;-67
2024/01/31 03:24:00;;;;;;;;;;;;;;;7.76;76.47;102431.50;4197190;28;19934;-68
2024/01/31 03:26:01;;;;;;;;;;;;;;;7.76;76.14;102426.09;4197085;28;20028;-68
2024/01/31 03:28:05;;;;;;;;;;;;;;;7.76;76.48;102434.19;4178951;28;20330;-67
2024/01/31 03:30:08;;;;;;;;;;;;;;;7.76;76.50;102437.72;4179584;28;19929;-68
2024/01/31 03:32:10;;;;;;;;;;;;;;;7.76;76.65;102431.50;4195839;28;20047;-67
2024/01/31 03:34:12;;;;;;;;;;;;;;;7.76;76.50;102434.19;4196696;28;20326;-67
2024/01/31 03:36:14;;;;;;;;;;;;;;;7.76;76.22;102437.72;4194370;28;20023;-68
2024/01/31 03:38:16;;;;;;;;;;;;;;;7.76;76.29;102443.09;4196491;28;20027;-68
2024/01/31 03:40:17;;;;;;;;;;;;;;;7.74;76.46;102442.38;4195922;28;20023;-67
2024/01/31 03:42:19;;;;;;;;;;;;;;;7.73;76.54;102448.72;4194765;28;20007;-68
2024/01/31 03:44:22;;;;;;;;;;;;;;;7.76;76.43;102471.84;4195785;28;20023;-68
2024/01/31 03:46:25;;;;;;;;;;;;;;;7.78;76.50;102455.59;4196299;28;20020;-67
2024/01/31 03:48:27;;;;;;;;;;;;;;;7.81;76.50;102463.41;4195741;28;20465;-68
2024/01/31 03:50:29;;;;;;;;;;;;;;;7.80;76.51;102464.38;4194685;28;19959;-68
2024/01/31 03:52:32;;;;;;;;;;;;;;;7.78;76.57;102467.19;4193860;28;20338;-68
2024/01/31 03:54:34;;;;;;;;;;;;;;;7.78;76.63;102458.28;4193975;28;20433;-68
2024/01/31 03:56:35;;;;;;;;;;;;;;;7.78;76.77;102461.81;4179350;28;20020;-67
2024/01/31 03:58:37;;;;;;;;;;;;;;;7.79;76.86;102463.53;4195806;28;20028;-67
2024/01/31 04:00:39;;;;;;;;;;;;;;;7.76;76.67;102477.22;4194419;28;20426;-68
2024/01/31 04:02:41;;;;;;;;;;;;;;;7.78;76.91;102477.94;4196346;28;20386;-67
2024/01/31 04:04:43;;;;;;;;;;;;;;;7.78;76.93;102477.94;4196914;28;20444;-68
2024/01/31 04:06:45;;;;;;;;;;;;;;;7.78;76.99;102486.00;4195258;28;20019;-68
2024/01/31 04:08:47;;;;;;;;;;;;;;;7.78;76.85;102483.31;4197044;28;20520;-68
2024/01/31 04:10:49;;;;;;;;;;;;;;;7.75;76.95;102483.56;4194777;28;20478;-68
2024/01/31 04:12:52;;;;;;;;;;;;;;;7.74;76.77;102482.72;4192875;28;20043;-68
2024/01/31 04:14:54;;;;;;;;;;;;;;;7.72;76.90;102481.94;4196552;28;20003;-68
2024/01/31 04:16:57;;;;;;;;;;;;;;;7.73;76.79;102483.66;4194422;28;20020;-68
2024/01/31 04:18:59;;;;;;;;;;;;;;;7.71;76.68;102492.81;4196313;28;20023;-68
2024/01/31 04:21:01;;;;;;;;;;;;;;;7.72;76.69;102481.09;4195909;28;20015;-68
2024/01/31 04:23:03;;;;;;;;;;;;;;;7.71;76.99;102477.56;4195249;28;20023;-68
2024/01/31 04:25:05;;;;;;;;;;;;;;;7.71;76.89;102493.69;4195203;28;20023;-68
2024/01/31 04:27:10;;;;;;;;;;;;;;;7.72;76.96;102479.25;4196075;28;20015;-68
2024/01/31 04:29:12;;;;;;;;;;;;;;;7.73;76.91;102490.91;4193880;28;20023;-68
2024/01/31 04:31:14;;;;;;;;;;;;;;;7.72;77.05;102490.00;4194647;28;19960;-68
2024/01/31 04:33:20;;;;;;;;;;;;;;;7.71;76.82;102490.13;4195616;28;20023;-68
2024/01/31 04:35:22;;;;;;;;;;;;;;;7.71;76.80;102490.13;4196429;28;20027;-68
2024/01/31 04:37:25;;;;;;;;;;;;;;;7.71;77.10;102491.00;4194649;28;20306;-69
2024/01/31 04:39:26;;;;;;;;;;;;;;;7.70;76.68;102491.97;4194980;28;20035;-68
2024/01/31 04:41:28;;;;;;;;;;;;;;;7.67;76.95;102486.81;4194025;28;19924;-68
2024/01/31 04:43:29;;;;;;;;;;;;;;;7.67;76.65;102494.03;4195124;28;20019;-69
2024/01/31 04:45:31;;;;;;;;;;;;;;;7.69;77.06;102498.31;4195705;28;20014;-68
2024/01/31 04:47:33;;;;;;;;;;;;;;;7.68;76.75;102499.31;4193911;28;20020;-68
2024/01/31 04:49:37;;;;;;;;;;;;;;;7.66;76.87;102495.00;4194348;28;20821;-68
2024/01/31 04:51:40;;;;;;;;;;;;;;;7.67;76.78;102491.34;4195547;28;19932;-69
2024/01/31 04:53:42;;;;;;;;;;;;;;;7.66;76.76;102495.00;4195753;28;20035;-68
2024/01/31 04:55:45;;;;;;;;;;;;;;;7.65;77.04;102501.34;4194179;28;20023;-68
2024/01/31 04:57:47;;;;;;;;;;;;;;;7.64;76.84;102505.88;4195786;28;20011;-68
2024/01/31 04:59:49;;;;;;;;;;;;;;;7.62;76.59;102509.63;4194881;28;20023;-68
2024/01/31 05:01:52;;;;;;;;;;;;;;;7.63;76.67;102501.47;4194714;28;20382;-68
2024/01/31 05:03:54;;;;;;;;;;;;;;;7.63;76.86;102506.84;4195304;28;20022;-68
2024/01/31 05:05:57;;;;;;;;;;;;;;;7.62;76.75;102509.63;4195027;28;20011;-68
2024/01/31 05:07:59;;;;;;;;;;;;;;;7.64;76.82;102519.31;4194455;28;20023;-69
2024/01/31 05:10:02;;;;;;;;;;;;;;;7.63;76.80;102506.84;4194256;28;20030;-68
2024/01/31 05:12:05;;;;;;;;;;;;;;;7.61;76.64;102511.47;4193328;28;20454;-68
2024/01/31 05:14:07;;;;;;;;;;;;;;;7.63;76.90;102514.91;4194495;28;20011;-68
2024/01/31 05:16:09;;;;;;;;;;;;;;;7.62;76.83;102512.31;4194320;28;20007;-68
2024/01/31 05:18:11;;;;;;;;;;;;;;;7.60;76.51;102512.44;4194853;28;20034;-68
2024/01/31 05:20:13;;;;;;;;;;;;;;;7.58;76.60;102512.56;4193104;28;20699;-68
2024/01/31 05:22:16;;;;;;;;;;;;;;;7.61;76.61;102534.84;4194609;28;20047;-68
2024/01/31 05:24:19;;;;;;;;;;;;;;;7.61;76.70;102521.38;4195454;28;20022;-68
2024/01/31 05:26:21;;;;;;;;;;;;;;;7.59;76.33;102518.81;4176518;28;20395;-68
2024/01/31 05:28:23;;;;;;;;;;;;;;;7.62;76.63;102528.47;4193967;28;20467;-69
2024/01/31 05:30:25;;;;;;;;;;;;;;;7.63;76.58;102522.97;4194600;28;20051;-68
2024/01/31 05:32:27;;;;;;;;;;;;;;;7.62;76.52;102517.72;4193471;28;20402;-68
2024/01/31 05:34:29;;;;;;;;;;;;;;;7.61;76.88;102521.38;4193133;28;20016;-69
2024/01/31 05:36:31;;;;;;;;;;;;;;;7.60;76.65;102530.41;4194558;28;20015;-68
2024/01/31 05:38:34;;;;;;;;;;;;;;;7.58;76.95;102523.31;4193834;28;20072;-69
2024/01/31 05:40:38;;;;;;;;;;;;;;;7.57;76.73;102526.16;4193883;28;20023;-68
2024/01/31 05:42:40;;;;;;;;;;;;;;;7.57;76.74;102528.84;4191777;28;20035;-68
2024/01/31 05:44:42;;;;;;;;;;;;;;;7.54;77.04;102529.91;4152529;28;20016;-68
2024/01/31 05:46:47;;;;;;;;;;;;;;;7.53;77.26;102538.94;4191623;28;20007;-68
2024/01/31 05:48:49;;;;;;;;;;;;;;;7.53;77.42;102536.25;4194161;28;20022;-68
2024/01/31 05:50:51;;;;;;;;;;;;;;;7.53;77.13;102546.16;4191731;28;20024;-68
2024/01/31 05:52:53;;;;;;;;;;;;;;;7.52;77.21;102550.69;4191078;28;20344;-68
2024/01/31 05:54:56;;;;;;;;;;;;;;;7.51;77.23;102548.97;4174397;28;20043;-68
2024/01/31 05:56:58;;;;;;;;;;;;;;;7.50;77.45;102546.38;4194842;28;20019;-68
2024/01/31 05:59:00;;;;;;;;;;;;;;;7.48;77.38;102556.41;4194123;28;20010;-69
2024/01/31 06:01:02;;;;;;;;;;;;;;;7.48;77.78;102564.47;4193409;28;20030;-68
2024/01/31 06:03:04;;;;;;;;;;;;;;;7.47;77.62;102560.03;4194069;28;20003;-69
2024/01/31 06:05:07;;;;;;;;;;;;;;;7.48;77.47;102561.78;4191431;28;20023;-69
2024/01/31 06:07:09;;;;;;;;;;;;;;;7.45;77.53;102560.16;4193303;28;20016;-69
2024/01/31 06:09:12;;;;;;;;;;;;;;;7.44;78.09;102560.28;4191998;28;20464;-68
2024/01/31 06:11:15;;;;;;;;;;;;;;;7.43;78.21;102570.16;4190374;28;20063;-69
2024/01/31 06:13:17;;;;;;;;;;;;;;;7.42;78.28;102567.59;4191174;28;19925;-68
2024/01/31 06:15:20;;;;;;;;;;;;;;;7.41;78.08;102572.09;4191602;28;20007;-68
2024/01/31 06:17:22;;;;;;;;;;;;;;;7.40;78.14;102576.63;4192437;28;20044;-68
2024/01/31 06:19:23;;;;;;;;;;;;;;;7.39;77.94;102584.78;4191450;28;20398;-69
2024/01/31 06:21:25;;;;;;;;;;;;;;;7.39;77.92;102582.09;4191191;28;20035;-68
2024/01/31 06:23:27;;;;;;;;;;;;;;;7.40;77.77;102575.78;4191434;28;20094;-68
2024/01/31 06:25:29;;;;;;;;;;;;;;;7.38;77.44;102586.63;4190423;28;20015;-68
2024/01/31 06:27:32;;;;;;;;;;;;;;;7.37;77.52;102601.03;4191962;28;20023;-69
2024/01/31 06:29:34;;;;;;;;;;;;;;;7.36;77.46;102609.22;4190564;28;20047;-68
2024/01/31 06:31:45;;;;;;;;;;;;;;;7.34;77.36;102608.47;4159562;28;20033;-68
2024/01/31 06:33:47;;;;;;;;;;;;;;;7.32;77.69;102608.56;4175912;28;20457;-69
2024/01/31 06:35:50;;;;;;;;;;;;;;;7.31;77.35;102619.44;4192009;28;20643;-68
2024/01/31 06:37:52;;;;;;;;;;;;;;;7.29;77.60;102618.66;4189334;28;20051;-68
2024/01/31 06:39:55;;;;;;;;;;;;;;;7.26;77.36;102617.06;4189037;28;20020;-68
2024/01/31 06:41:55;;;;;;;;;;;;;;;7.26;77.57;102618.88;4190993;28;20007;-68
2024/01/31 06:43:59;;;;;;;;;;;;;;;7.25;77.37;102619.88;4191157;28;19924;-69
2024/01/31 06:46:01;;;;;;;;;;;;;;;7.23;77.14;102628.03;4192439;28;20099;-68
2024/01/31 06:48:04;;;;;;;;;;;;;;;7.23;77.32;102619.97;4192099;28;20031;-68
2024/01/31 06:50:06;;;;;;;;;;;;;;;7.22;77.14;102623.63;4192943;28;20360;-68
2024/01/31 06:52:10;;;;;;;;;;;;;;;7.20;77.00;102629.09;4194012;28;20551;-68
2024/01/31 06:54:14;;;;;;;;;;;;;;;7.21;76.78;102630.00;4192216;28;19947;-68
2024/01/31 06:56:19;;;;;;;;;;;;;;;7.19;77.13;102630.09;4193969;28;20047;-68
2024/01/31 06:58:21;;;;;;;;;;;;;;;7.19;77.04;102629.22;4196406;28;20019;-68
2024/01/31 07:00:24;;;;;;;;;;;;;;;7.19;76.87;102638.16;4195581;28;20027;-68
2024/01/31 07:02:27;;;;;;;;;;;;;;;7.20;76.56;102644.38;4194841;28;20018;-68
2024/01/31 07:04:29;;;;;;;;;;;;;;;7.19;76.44;102642.66;4195613;28;20015;-68
2024/01/31 07:06:30;;;;;;;;;;;;;;;7.17;75.89;102652.66;4194132;28;20015;-68
2024/01/31 07:08:32;;;;;;;;;;;;;;;7.17;75.73;102640.06;4193645;28;20028;-68
2024/01/31 07:10:34;;;;;;;;;;;;;;;7.17;75.51;102647.28;4195866;28;20020;-68
2024/01/31 07:12:36;;;;;;;;;;;;;;;7.15;75.09;102651.91;4194963;28;20015;-68
2024/01/31 07:14:38;;;;;;;;;;;;;;;7.12;75.05;102652.13;4195962;28;19967;-68
2024/01/31 07:16:41;;;;;;;;;;;;;;;7.12;74.79;102658.34;4193874;28;20020;-68
2024/01/31 07:18:43;;;;;;;;;;;;;;;7.10;74.53;102654.03;4194638;28;20498;-68
2024/01/31 07:20:45;;;;;;;;;;;;;;;7.09;74.38;102661.25;4194017;28;20374;-68
2024/01/31 07:22:47;;;;;;;;;;;;;;;7.08;74.36;102650.63;4189911;28;20051;-68
2024/01/31 07:24:49;;;;;;;;;;;;;;;7.07;74.25;102659.63;4191760;28;20613;-68
2024/01/31 07:26:51;;;;;;;;;;;;;;;7.06;74.10;102661.47;4194654;28;20031;-68
2024/01/31 07:28:53;;;;;;;;;;;;;;;7.05;73.92;102670.50;4194250;28;20126;-68
2024/01/31 07:30:55;;;;;;;;;;;;;;;7.04;74.04;102668.78;4195809;28;20459;-68
2024/01/31 07:32:58;;;;;;;;;;;;;;;7.05;74.21;102667.81;4195645;28;20019;-68
2024/01/31 07:35:00;;;;;;;;;;;;;;;7.04;73.99;102676.84;4197463;28;19924;-68
2024/01/31 07:37:03;;;;;;;;;;;;;;;7.01;73.56;102682.44;4196974;28;20019;-68
2024/01/31 07:39:05;;;;;;;;;;;;;;;7.01;73.74;102680.59;4196922;28;20007;-68
2024/01/31 07:41:07;;;;;;;;;;;;;;;7.02;73.49;102681.44;4195476;28;20027;-68
2024/01/31 07:43:09;;;;;;;;;;;;;;;7.00;73.72;102680.69;4195793;28;20019;-68
2024/01/31 07:45:10;;;;;;;;;;;;;;;7.00;73.51;102689.63;4196908;28;20007;-68
2024/01/31 07:47:12;;;;;;;;;;;;;;;6.99;73.50;102685.22;4197246;28;19978;-68
2024/01/31 07:49:16;;;;;;;;;;;;;;;6.99;73.49;102690.59;4195446;28;20023;-68
2024/01/31 07:51:18;;;;;;;;;;;;;;;7.00;73.40;102699.50;4196292;28;20425;-68
2024/01/31 07:53:20;;;;;;;;;;;;;;;6.98;73.33;102698.75;4197045;28;20011;-68
2024/01/31 07:55:22;;;;;;;;;;;;;;;6.97;73.66;102707.78;4196384;28;20377;-68
2024/01/31 07:57:24;;;;;;;;;;;;;;;6.98;73.68;102704.97;4194441;28;20011;-68
2024/01/31 07:59:26;;;;;;;;;;;;;;;6.97;73.37;102705.94;4197097;28;20020;-68
2024/01/31 08:01:28;;;;;;;;;;;;;;;6.96;73.68;102711.41;4196352;28;20347;-68
2024/01/31 08:03:30;;;;;;;;;;;;;;;6.94;73.03;102711.53;4196691;28;20469;-68
2024/01/31 08:05:33;;;;;;;;;;;;;;;6.93;73.21;102709.81;4195968;28;20015;-68
2024/01/31 08:07:35;;;;;;;;;;;;;;;6.92;73.24;102716.16;4196186;28;20019;-68
2024/01/31 08:09:39;;;;;;;;;;;;;;;6.93;73.27;102715.19;4195980;28;20018;-68
2024/01/31 08:11:42;;;;;;;;;;;;;;;6.90;73.02;102719.94;4195075;28;20011;-68
2024/01/31 08:13:44;;;;;;;;;;;;;;;6.88;73.24;102705.72;4195119;28;20121;-68
2024/01/31 08:15:46;;;;;;;;;;;;;;;6.85;73.08;102715.72;4195357;28;20500;-68
2024/01/31 08:17:48;;;;;;;;;;;;;;;6.85;73.36;102714.88;4196870;28;20469;-68
2024/01/31 08:19:50;;;;;;;;;;;;;;;6.85;73.38;102723.78;4196268;28;20019;-68
2024/01/31 08:21:53;;;;;;;;;;;;;;;6.84;73.18;102721.19;4194471;28;20011;-68
2024/01/31 08:23:57;;;;;;;;;;;;;;;6.84;73.09;102721.19;4196116;28;19960;-68
2024/01/31 08:25:59;;;;;;;;;;;;;;;6.83;72.73;102727.50;4196330;28;20031;-68
2024/01/31 08:28:01;;;;;;;;;;;;;;;6.82;72.53;102731.19;4195526;28;20012;-68
2024/01/31 08:30:03;;;;;;;;;;;;;;;6.82;72.73;102723.97;4195143;28;20122;-69
2024/01/31 08:32:06;;;;;;;;;;;;;;;6.82;72.58;102725.81;4194484;28;20028;-69
2024/01/31 08:34:08;;;;;;;;;;;;;;;6.82;72.25;102725.81;4190823;28;20027;-69
2024/01/31 08:36:10;;;;;;;;;;;;;;;6.82;72.57;102726.66;4194264;28;20011;-69
2024/01/31 08:38:16;;;;;;;;;;;;;;;6.81;72.44;102727.63;4196474;28;19951;-69
2024/01/31 08:40:18;;;;;;;;;;;;;;;6.81;72.43;102734.81;4195176;28;19972;-69
2024/01/31 08:42:19;;;;;;;;;;;;;;;6.80;72.46;102739.34;4177869;28;20583;-68
2024/01/31 08:44:21;;;;;;;;;;;;;;;6.79;72.51;102737.63;4194401;28;19963;-68
2024/01/31 08:46:26;;;;;;;;;;;;;;;6.79;72.50;102742.13;4194839;28;20394;-68
2024/01/31 08:48:28;;;;;;;;;;;;;;;6.79;72.53;102747.50;4195837;28;20454;-69
2024/01/31 08:50:30;;;;;;;;;;;;;;;6.78;72.25;102746.63;4195602;28;20023;-68
2024/01/31 08:52:34;;;;;;;;;;;;;;;6.79;72.49;102747.50;4194491;28;20028;-69
2024/01/31 08:54:37;;;;;;;;;;;;;;;6.78;72.49;102760.06;4196272;28;20044;-69
2024/01/31 08:56:39;;;;;;;;;;;;;;;6.78;72.44;102756.53;4195583;28;19929;-68
2024/01/31 08:58:41;;;;;;;;;;;;;;;6.78;73.06;102753.84;4195577;28;20023;-68
2024/01/31 09:00:43;;;;;;;;;;;;;;;6.79;73.21;102752.88;4194503;28;20028;-69
2024/01/31 09:02:46;;;;;;;;;;;;;;;6.79;73.89;102760.94;4194980;28;20015;-68
2024/01/31 09:04:47;;;;;;;;;;;;;;;6.79;74.18;102758.25;4186023;28;20028;-69
2024/01/31 09:06:49;;;;;;;;;;;;;;;6.79;74.02;102761.78;4194215;28;20378;-69
2024/01/31 09:08:51;;;;;;;;;;;;;;;6.79;74.34;102755.56;4194969;28;20019;-68
2024/01/31 09:10:55;;;;;;;;;;;;;;;6.78;73.94;102772.63;4194656;28;20016;-68
2024/01/31 09:12:57;;;;;;;;;;;;;;;6.76;74.13;102775.41;4194739;28;20039;-68
2024/01/31 09:14:59;;;;;;;;;;;;;;;6.75;73.95;102772.84;4195207;28;20020;-69
2024/01/31 09:17:01;;;;;;;;;;;;;;;6.75;74.07;102770.16;4194561;28;19928;-69
2024/01/31 09:19:03;;;;;;;;;;;;;;;6.73;74.04;102767.56;4194831;28;20032;-68
2024/01/31 09:21:05;;;;;;;;;;;;;;;6.73;74.10;102764.88;4195223;28;20019;-68
2024/01/31 09:23:08;;;;;;;;;;;;;;;6.73;74.46;102767.56;4194674;28;20015;-68
2024/01/31 09:25:11;;;;;;;;;;;;;;;6.72;74.28;102771.19;4194595;28;20012;-68
2024/01/31 09:27:16;;;;;;;;;;;;;;;6.73;74.38;102766.72;4195647;28;20434;-68
2024/01/31 09:29:18;;;;;;;;;;;;;;;6.74;74.36;102757.69;4194346;28;20351;-68
2024/01/31 09:31:20;;;;;;;;;;;;;;;6.73;73.99;102766.72;4194725;28;20447;-68
2024/01/31 09:33:23;;;;;;;;;;;;;;;6.73;73.75;102772.94;4194128;28;20020;-68
2024/01/31 09:35:24;;;;;;;;;;;;;;;6.72;73.54;102768.50;4194890;28;20024;-68
2024/01/31 09:37:26;;;;;;;;;;;;;;;6.73;73.32;102762.19;4195703;28;20015;-68
2024/01/31 09:39:30;;;;;;;;;;;;;;;6.73;73.06;102753.28;4194438;28;20389;-68
2024/01/31 09:41:32;;;;;;;;;;;;;;;6.73;72.92;102755.97;4194303;28;20016;-68
2024/01/31 09:43:35;;;;;;;;;;;;;;;6.74;72.73;102755.88;4195016;28;20442;-68
2024/01/31 09:45:37;;;;;;;;;;;;;;;6.73;72.56;102751.44;4195202;28;20044;-68
2024/01/31 09:47:39;;;;;;;;;;;;;;;6.73;72.29;102759.50;4193435;28;20011;-68
2024/01/31 09:49:41;;;;;;;;;;;;;;;6.74;72.23;102753.19;4195808;28;20454;-68
2024/01/31 09:51:43;;;;;;;;;;;;;;;6.74;72.51;102763.03;4195501;28;20011;-68
2024/01/31 09:53:45;;;;;;;;;;;;;;;6.74;72.61;102763.94;4194569;28;20027;-68
2024/01/31 09:55:47;;;;;;;;;;;;;;;6.76;72.83;102767.38;4194561;28;20019;-68
2024/01/31 09:57:49;;;;;;;;;;;;;;;6.77;72.82;102766.41;4194926;28;20023;-68
2024/01/31 09:59:54;;;;;;;;;;;;;;;6.78;72.84;102767.25;4195006;28;20019;-68
2024/01/31 10:01:56;;;;;;;;;;;;;;;6.78;72.96;102765.44;4193219;28;20376;-68
2024/01/31 10:03:58;;;;;;;;;;;;;;;6.77;73.10;102763.72;4193976;28;20032;-68
2024/01/31 10:06:00;;;;;;;;;;;;;;;6.79;72.96;102753.72;4195037;28;20023;-68
2024/01/31 10:08:02;;;;;;;;;;;;;;;6.79;73.08;102747.50;4193688;28;20027;-68
2024/01/31 10:10:04;;;;;;;;;;;;;;;6.79;73.38;102753.72;4194186;28;20035;-68
2024/01/31 10:12:06;;;;;;;;;;;;;;;6.79;73.56;102747.50;4193949;28;20023;-68
2024/01/31 10:14:08;;;;;;;;;;;;;;;6.79;73.67;102744.81;4194617;28;20023;-68
2024/01/31 10:16:11;;;;;;;;;;;;;;;6.77;73.80;102734.19;4193905;28;20023;-68
2024/01/31 10:18:13;;;;;;;;;;;;;;;6.79;73.73;102734.09;4194566;28;19925;-68
2024/01/31 10:20:15;;;;;;;;;;;;;;;6.79;73.52;102720.66;4193258;28;20015;-68
2024/01/31 10:22:17;;;;;;;;;;;;;;;6.78;73.50;102729.66;4194081;28;20027;-68
2024/01/31 10:24:19;;;;;;;;;;;;;;;6.78;73.87;102725.13;4194612;28;20465;-68
2024/01/31 10:26:21;;;;;;;;;;;;;;;6.78;73.71;102727.81;4193809;28;20027;-68
2024/01/31 10:28:23;;;;;;;;;;;;;;;6.80;74.00;102738.47;4193057;28;20035;-68
2024/01/31 10:30:24;;;;;;;;;;;;;;;6.79;73.95;102737.63;4194916;28;20051;-68
2024/01/31 10:32:27;;;;;;;;;;;;;;;6.79;73.96;102742.97;4198730;28;20283;-68
2024/01/31 10:34:29;;;;;;;;;;;;;;;6.81;73.92;102741.06;4197483;28;20027;-68
2024/01/31 10:36:31;;;;;;;;;;;;;;;6.81;74.15;102743.72;4197111;28;20450;-68